createdAt,value
2022-08-02T00:01:06.233Z,18.47
2022-08-02T00:03:36.460Z,18.52
2022-08-02T00:06:05.399Z,18.54
2022-08-02T00:08:34.509Z,18.51
2022-08-02T00:11:03.243Z,18.36
2022-08-02T00:13:32.049Z,18.27
2022-08-02T00:16:00.825Z,18.26
2022-08-02T00:18:29.684Z,18.24
2022-08-02T00:21:00.057Z,18.21
2022-08-02T00:23:28.843Z,18.16
2022-08-02T00:25:58.155Z,18.09
2022-08-02T00:28:28.425Z,18.07
2022-08-02T00:30:58.871Z,18.09
2022-08-02T00:34:26.537Z,18.04
2022-08-02T00:36:18.585Z,17.97
2022-08-02T00:38:48.584Z,17.94
2022-08-02T00:41:20.820Z,17.95
2022-08-02T00:43:52.748Z,17.90
2022-08-02T00:46:22.706Z,17.86
2022-08-02T00:48:51.530Z,17.93
2022-08-02T00:51:21.727Z,18.01
2022-08-02T00:53:50.466Z,17.97
2022-08-02T00:56:19.245Z,17.90
2022-08-02T00:58:48.107Z,17.81
2022-08-02T01:01:17.359Z,17.87
2022-08-02T01:03:46.132Z,17.88
2022-08-02T01:06:14.890Z,17.80
2022-08-02T01:08:45.089Z,17.81
2022-08-02T01:11:14.032Z,17.83
2022-08-02T01:13:43.343Z,17.73
2022-08-02T01:16:20.320Z,17.66
2022-08-02T01:18:58.809Z,17.69
2022-08-02T01:22:15.733Z,17.53
2022-08-02T01:25:16.370Z,17.48
2022-08-02T01:28:10.415Z,17.47
2022-08-02T01:30:44.336Z,17.37
2022-08-02T01:33:19.877Z,17.47
2022-08-02T01:35:58.161Z,17.54
2022-08-02T01:38:36.586Z,17.52
2022-08-02T01:41:09.299Z,17.37
2022-08-02T01:43:43.604Z,17.25
2022-08-02T01:46:15.450Z,17.34
2022-08-02T01:48:47.903Z,17.43
2022-08-02T01:51:41.462Z,17.39
2022-08-02T01:54:15.649Z,17.45
2022-08-02T01:56:46.823Z,17.45
2022-08-02T01:59:23.030Z,17.41
2022-08-02T02:01:56.683Z,17.25
2022-08-02T02:04:29.282Z,17.25
2022-08-02T02:06:59.400Z,17.29
2022-08-02T02:09:31.772Z,17.31
2022-08-02T02:12:06.568Z,17.38
2022-08-02T02:14:51.646Z,17.43
2022-08-02T02:17:57.100Z,17.47
2022-08-02T02:20:17.278Z,17.49
2022-08-02T02:22:49.923Z,17.34
2022-08-02T02:25:24.944Z,17.33
2022-08-02T02:28:13.299Z,17.22
2022-08-02T02:30:50.020Z,17.16
2022-08-02T02:33:24.211Z,17.18
2022-08-02T02:35:56.811Z,17.11
2022-08-02T02:38:31.866Z,17.04
2022-08-02T02:41:04.617Z,17.01
2022-08-02T02:43:36.775Z,17.01
2022-08-02T02:46:09.237Z,16.98
2022-08-02T02:48:39.145Z,16.95
2022-08-02T02:51:14.010Z,16.89
2022-08-02T02:54:31.111Z,16.96
2022-08-02T02:56:34.287Z,17.02
2022-08-02T02:59:04.261Z,16.96
2022-08-02T03:01:55.714Z,16.86
2022-08-02T03:04:26.284Z,16.83
2022-08-02T03:06:55.507Z,16.82
2022-08-02T03:09:24.384Z,16.77
2022-08-02T03:11:55.003Z,16.78
2022-08-02T03:14:24.702Z,16.79
2022-08-02T03:16:56.337Z,16.87
2022-08-02T03:19:25.366Z,16.86
2022-08-02T03:22:02.213Z,16.82
2022-08-02T03:24:30.920Z,16.77
2022-08-02T03:26:59.682Z,16.89
2022-08-02T03:29:31.454Z,16.95
2022-08-02T03:32:04.543Z,16.95
2022-08-02T03:34:33.597Z,16.97
2022-08-02T03:37:04.087Z,17.00
2022-08-02T03:39:34.279Z,17.02
2022-08-02T03:42:03.304Z,17.04
2022-08-02T03:44:33.681Z,17.08
2022-08-02T03:47:04.251Z,17.00
2022-08-02T03:49:33.331Z,16.98
2022-08-02T03:52:05.194Z,17.02
2022-08-02T03:54:34.736Z,17.04
2022-08-02T03:57:15.977Z,16.95
2022-08-02T03:59:46.821Z,16.89
2022-08-02T04:02:17.216Z,16.94
2022-08-02T04:04:46.954Z,16.98
2022-08-02T04:08:02.566Z,16.91
2022-08-02T04:10:11.221Z,16.84
2022-08-02T04:12:40.849Z,16.79
2022-08-02T04:16:21.079Z,16.77
2022-08-02T04:19:15.111Z,16.77
2022-08-02T04:21:52.174Z,16.81
2022-08-02T04:24:28.290Z,16.87
2022-08-02T04:27:06.547Z,16.94
2022-08-02T04:29:50.208Z,16.93
2022-08-02T04:32:20.163Z,16.93
2022-08-02T04:35:17.696Z,16.96
2022-08-02T04:38:08.655Z,16.98
2022-08-02T04:40:30.527Z,17.01
2022-08-02T04:42:59.286Z,17.05
2022-08-02T04:45:30.817Z,17.00
2022-08-02T04:48:06.886Z,17.08
2022-08-02T04:50:37.301Z,17.09
2022-08-02T04:53:06.395Z,17.16
2022-08-02T04:55:35.268Z,17.22
2022-08-02T04:58:18.335Z,17.28
2022-08-02T05:00:53.055Z,17.32
2022-08-02T05:03:22.311Z,17.38
2022-08-02T05:05:52.743Z,17.41
2022-08-02T05:08:22.000Z,17.47
2022-08-02T05:10:50.752Z,17.51
2022-08-02T05:13:21.041Z,17.54
2022-08-02T05:15:51.110Z,17.54
2022-08-02T05:18:20.160Z,17.58
2022-08-02T05:20:49.102Z,17.60
2022-08-02T05:23:21.384Z,17.63
2022-08-02T05:25:50.255Z,17.63
2022-08-02T05:28:50.161Z,17.71
2022-08-02T05:31:19.088Z,17.70
2022-08-02T05:33:52.154Z,17.74
2022-08-02T05:36:21.639Z,17.78
2022-08-02T05:38:52.974Z,17.83
2022-08-02T05:41:28.683Z,17.84
2022-08-02T05:43:57.417Z,17.90
2022-08-02T05:46:29.295Z,17.98
2022-08-02T05:48:58.507Z,18.06
2022-08-02T05:51:37.266Z,18.11
2022-08-02T05:54:20.626Z,18.22
2022-08-02T05:57:02.206Z,18.28
2022-08-02T05:59:42.233Z,18.32
2022-08-02T06:02:21.656Z,18.34
2022-08-02T06:05:11.649Z,18.38
2022-08-02T06:07:44.868Z,18.43
2022-08-02T06:10:17.131Z,18.47
2022-08-02T06:12:51.615Z,18.58
2022-08-02T06:15:22.014Z,18.65
2022-08-02T06:17:53.221Z,18.72
2022-08-02T06:20:22.442Z,18.85
2022-08-02T06:22:53.912Z,18.95
2022-08-02T06:25:48.107Z,19.01
2022-08-02T06:28:18.191Z,19.07
2022-08-02T06:30:47.445Z,19.10
2022-08-02T06:33:16.686Z,19.12
2022-08-02T06:35:53.389Z,19.19
2022-08-02T06:38:28.775Z,19.24
2022-08-02T06:41:06.183Z,19.32
2022-08-02T06:43:46.264Z,19.42
2022-08-02T06:46:49.208Z,19.53
2022-08-02T06:49:05.958Z,19.67
2022-08-02T06:51:35.240Z,19.83
2022-08-02T06:54:04.003Z,19.95
2022-08-02T06:56:34.120Z,20.09
2022-08-02T06:59:06.079Z,20.23
2022-08-02T07:01:45.358Z,20.38
2022-08-02T07:04:20.236Z,20.48
2022-08-02T07:06:51.259Z,20.57
2022-08-02T07:09:22.011Z,20.61
2022-08-02T07:11:52.631Z,20.67
2022-08-02T07:14:21.759Z,20.74
2022-08-02T07:16:53.895Z,20.80
2022-08-02T07:19:25.373Z,20.82
2022-08-02T07:22:06.557Z,20.87
2022-08-02T07:24:35.528Z,20.99
2022-08-02T07:31:43.874Z,21.30
2022-08-02T07:34:12.619Z,21.40
2022-08-02T07:36:41.433Z,21.43
2022-08-02T07:39:17.546Z,21.49
2022-08-02T07:41:46.615Z,21.56
2022-08-02T07:44:15.476Z,21.61
2022-08-02T07:46:46.119Z,21.65
2022-08-02T07:49:18.717Z,21.72
2022-08-02T07:51:47.653Z,21.82
2022-08-02T07:54:16.962Z,21.90
2022-08-02T07:56:46.058Z,22.06
2022-08-02T07:59:14.878Z,22.19
2022-08-02T08:01:46.167Z,22.19
2022-08-02T08:04:15.156Z,22.19
2022-08-02T08:06:43.982Z,22.13
2022-08-02T08:09:13.058Z,22.14
2022-08-02T08:11:41.785Z,22.10
2022-08-02T08:14:16.188Z,22.06
2022-08-02T08:16:47.024Z,22.15
2022-08-02T08:19:15.952Z,22.27
2022-08-02T08:21:44.737Z,22.36
2022-08-02T08:24:13.577Z,22.47
2022-08-02T08:26:42.321Z,22.55
2022-08-02T08:29:11.629Z,22.74
2022-08-02T08:31:41.735Z,22.93
2022-08-02T08:34:11.909Z,23.17
2022-08-02T08:36:40.762Z,23.22
2022-08-02T08:39:10.324Z,23.25
2022-08-02T08:41:39.578Z,23.28
2022-08-02T08:44:11.826Z,23.18
2022-08-02T08:46:44.710Z,23.05
2022-08-02T08:49:26.924Z,23.07
2022-08-02T08:51:58.139Z,23.08
2022-08-02T08:54:31.394Z,23.11
2022-08-02T08:57:02.080Z,23.20
2022-08-02T08:59:39.298Z,23.34
2022-08-02T09:02:19.745Z,23.51
2022-08-02T09:04:55.300Z,23.57
2022-08-02T09:07:24.513Z,23.42
2022-08-02T09:09:53.399Z,23.22
2022-08-02T09:12:25.213Z,23.20
2022-08-02T09:14:54.205Z,23.26
2022-08-02T09:17:23.053Z,23.36
2022-08-02T09:20:09.200Z,23.53
2022-08-02T09:22:38.405Z,23.60
2022-08-02T09:25:16.994Z,23.82
2022-08-02T09:28:58.124Z,23.90
2022-08-02T09:31:26.987Z,23.94
2022-08-02T09:33:57.913Z,24.07
2022-08-02T09:36:38.388Z,24.22
2022-08-02T09:39:13.902Z,24.42
2022-08-02T09:41:46.545Z,24.50
2022-08-02T09:44:17.350Z,24.55
2022-08-02T09:46:47.922Z,24.48
2022-08-02T09:49:20.670Z,24.55
2022-08-02T09:51:57.042Z,24.68
2022-08-02T09:54:29.872Z,24.98
2022-08-02T09:57:02.412Z,25.31
2022-08-02T09:59:31.800Z,25.79
2022-08-02T10:02:04.250Z,26.26
2022-08-02T10:04:52.394Z,26.64
2022-08-02T10:07:25.507Z,26.51
2022-08-02T10:09:54.551Z,26.31
2022-08-02T10:12:24.093Z,25.98
2022-08-02T10:14:54.253Z,25.76
2022-08-02T10:17:26.391Z,25.65
2022-08-02T10:20:03.429Z,25.86
2022-08-02T10:22:41.390Z,25.86
2022-08-02T10:25:11.121Z,25.69
2022-08-02T10:28:04.192Z,25.92
2022-08-02T10:30:33.159Z,26.45
2022-08-02T10:33:06.029Z,26.89
2022-08-02T10:35:39.271Z,27.24
2022-08-02T10:38:13.434Z,27.65
2022-08-02T10:40:57.843Z,27.97
2022-08-02T10:43:45.935Z,27.93
2022-08-02T10:46:33.727Z,27.59
2022-08-02T10:49:37.547Z,27.25
2022-08-02T10:52:12.590Z,27.10
2022-08-02T10:54:56.216Z,27.36
2022-08-02T10:57:28.428Z,27.70
2022-08-02T11:00:02.383Z,27.78
2022-08-02T11:02:42.315Z,27.74
2022-08-02T11:05:15.649Z,27.94
2022-08-02T11:07:49.647Z,28.13
2022-08-02T11:10:42.456Z,27.83
2022-08-02T11:13:17.465Z,27.56
2022-08-02T11:16:11.679Z,27.40
2022-08-02T11:19:07.155Z,27.27
2022-08-02T11:21:40.037Z,27.23
2022-08-02T11:24:32.691Z,27.60
2022-08-02T11:27:04.758Z,28.02
2022-08-02T11:29:38.621Z,28.32
2022-08-02T11:32:11.561Z,28.66
2022-08-02T11:34:42.064Z,28.94
2022-08-02T11:37:13.112Z,28.99
2022-08-02T11:39:42.478Z,29.13
2022-08-02T11:42:13.104Z,29.67
2022-08-02T11:44:43.734Z,30.07
2022-08-02T11:47:12.806Z,30.39
2022-08-02T11:49:43.157Z,30.30
2022-08-02T11:52:12.410Z,30.37
2022-08-02T11:54:43.917Z,30.58
2022-08-02T11:57:23.826Z,30.73
2022-08-02T11:59:54.907Z,30.38
2022-08-02T12:02:29.078Z,30.14
2022-08-02T12:05:00.528Z,30.14
2022-08-02T12:07:35.357Z,30.28
2022-08-02T12:10:09.936Z,30.22
2022-08-02T12:12:53.604Z,29.93
2022-08-02T12:15:35.273Z,29.68
2022-08-02T12:18:22.733Z,29.58
2022-08-02T12:20:51.838Z,29.96
2022-08-02T12:23:20.890Z,30.00
2022-08-02T12:26:02.330Z,29.96
2022-08-02T12:28:38.957Z,30.27
2022-08-02T12:31:10.656Z,30.63
2022-08-02T12:33:49.531Z,30.80
2022-08-02T12:36:19.908Z,30.89
2022-08-02T12:38:56.489Z,31.00
2022-08-02T12:41:31.478Z,30.94
2022-08-02T12:44:02.862Z,30.49
2022-08-02T12:46:41.873Z,30.09
2022-08-02T12:49:19.171Z,29.67
2022-08-02T12:51:50.762Z,29.41
2022-08-02T12:54:31.669Z,29.60
2022-08-02T12:57:12.792Z,29.59
2022-08-02T12:59:46.142Z,29.47
2022-08-02T13:02:18.166Z,29.45
2022-08-02T13:04:50.036Z,29.71
2022-08-02T13:07:20.438Z,30.00
2022-08-02T13:09:50.223Z,30.12
2022-08-02T13:12:19.047Z,30.50
2022-08-02T13:14:49.295Z,30.73
2022-08-02T13:17:18.156Z,30.54
2022-08-02T13:19:51.893Z,30.23
2022-08-02T13:22:22.091Z,29.98
2022-08-02T13:24:55.271Z,29.78
2022-08-02T13:27:26.593Z,29.54
2022-08-02T13:29:58.581Z,29.38
2022-08-02T13:32:29.094Z,29.63
2022-08-02T13:34:59.117Z,30.82
2022-08-02T13:37:28.340Z,31.48
2022-08-02T13:40:19.901Z,32.42
2022-08-02T13:42:45.940Z,33.40
2022-08-02T13:45:16.244Z,34.22
2022-08-02T13:47:57.535Z,34.73
2022-08-02T13:50:35.548Z,35.14
2022-08-02T13:53:05.370Z,35.36
2022-08-02T13:55:34.858Z,34.75
2022-08-02T13:58:10.083Z,34.01
2022-08-02T14:00:40.477Z,33.44
2022-08-02T14:03:12.301Z,33.21
2022-08-02T14:05:48.328Z,33.73
2022-08-02T14:08:20.809Z,33.38
2022-08-02T14:10:51.226Z,34.01
2022-08-02T14:13:20.454Z,34.76
2022-08-02T14:15:51.161Z,35.59
2022-08-02T14:18:20.515Z,35.31
2022-08-02T14:20:49.451Z,35.47
2022-08-02T14:23:19.358Z,35.50
2022-08-02T14:26:14.137Z,35.89
2022-08-02T14:28:55.597Z,36.18
2022-08-02T14:31:25.781Z,35.67
2022-08-02T14:33:54.667Z,35.21
2022-08-02T14:36:27.536Z,35.63
2022-08-02T14:38:57.730Z,36.30
2022-08-02T14:41:29.220Z,36.75
2022-08-02T14:44:08.930Z,37.31
2022-08-02T14:46:55.379Z,37.56
2022-08-02T14:49:26.776Z,37.72
2022-08-02T14:51:56.547Z,37.82
2022-08-02T14:54:30.419Z,38.09
2022-08-02T14:57:02.317Z,37.88
2022-08-02T14:59:31.947Z,38.00
2022-08-02T15:02:02.518Z,37.90
2022-08-02T15:04:34.351Z,37.53
2022-08-02T15:07:14.912Z,37.41
2022-08-02T15:09:43.777Z,36.88
2022-08-02T15:12:14.183Z,36.00
2022-08-02T15:14:44.268Z,35.37
2022-08-02T15:17:18.973Z,34.54
2022-08-02T15:19:57.757Z,33.93
2022-08-02T15:22:29.209Z,33.49
2022-08-02T15:24:58.197Z,32.98
2022-08-02T15:27:27.099Z,32.78
2022-08-02T15:30:01.913Z,32.60
2022-08-02T15:32:33.510Z,32.42
2022-08-02T15:35:02.489Z,32.26
2022-08-02T15:37:32.529Z,32.12
2022-08-02T15:40:02.378Z,31.87
2022-08-02T15:42:31.379Z,31.71
2022-08-02T15:45:01.193Z,31.56
2022-08-02T15:47:30.195Z,31.51
2022-08-02T15:50:04.255Z,31.30
2022-08-02T15:52:39.321Z,31.30
2022-08-02T15:55:13.138Z,31.18
2022-08-02T15:57:42.754Z,31.19
2022-08-02T16:00:18.011Z,31.30
2022-08-02T16:02:48.531Z,31.29
2022-08-02T16:05:21.723Z,31.13
2022-08-02T16:07:50.749Z,31.06
2022-08-02T16:10:20.772Z,31.00
2022-08-02T16:12:53.061Z,30.87
2022-08-02T16:15:28.672Z,30.73
2022-08-02T16:17:58.551Z,30.74
2022-08-02T16:20:34.673Z,30.68
2022-08-02T16:23:04.908Z,30.55
2022-08-02T16:25:41.756Z,30.47
2022-08-02T16:28:12.751Z,30.44
2022-08-02T16:30:54.150Z,30.34
2022-08-02T16:33:33.255Z,30.32
2022-08-02T16:36:05.221Z,30.24
2022-08-02T16:38:36.664Z,30.14
2022-08-02T16:41:06.960Z,30.09
2022-08-02T16:43:38.197Z,30.10
2022-08-02T16:46:09.976Z,30.08
2022-08-02T16:48:51.042Z,30.06
2022-08-02T16:51:22.708Z,30.00
2022-08-02T16:53:59.837Z,29.87
2022-08-02T16:56:35.688Z,29.80
2022-08-02T16:59:05.133Z,29.70
2022-08-02T17:02:11.109Z,29.60
2022-08-02T17:04:33.871Z,29.54
2022-08-02T17:10:03.776Z,29.37
2022-08-02T17:12:36.137Z,29.25
2022-08-02T17:16:01.588Z,29.19
2022-08-02T17:17:58.710Z,29.19
2022-08-02T17:20:30.236Z,29.06
2022-08-02T17:23:02.619Z,28.95
2022-08-02T17:25:35.781Z,28.90
2022-08-02T17:28:11.167Z,28.89
2022-08-02T17:30:41.985Z,28.71
2022-08-02T17:33:11.763Z,28.68
2022-08-02T17:35:52.020Z,28.62
2022-08-02T17:38:26.634Z,28.40
2022-08-02T17:41:00.879Z,28.29
2022-08-02T17:43:36.395Z,28.16
2022-08-02T17:46:11.228Z,28.05
2022-08-02T17:49:00.138Z,27.94
2022-08-02T17:52:15.466Z,27.87
2022-08-02T17:54:23.093Z,27.90
2022-08-02T17:56:52.772Z,27.85
2022-08-02T17:59:31.133Z,27.83
2022-08-02T18:02:11.468Z,27.84
2022-08-02T18:04:46.222Z,27.78
2022-08-02T18:07:23.610Z,27.70
2022-08-02T18:09:55.531Z,27.61
2022-08-02T18:12:24.320Z,27.47
2022-08-02T18:14:53.318Z,27.36
2022-08-02T18:17:22.369Z,27.30
2022-08-02T18:19:57.355Z,27.27
2022-08-02T18:22:32.534Z,27.17
2022-08-02T18:25:09.028Z,27.02
2022-08-02T18:27:38.853Z,26.89
2022-08-02T18:30:09.440Z,26.81
2022-08-02T18:33:57.154Z,26.72
2022-08-02T18:35:30.174Z,26.65
2022-08-02T18:38:03.657Z,26.58
2022-08-02T18:40:35.105Z,26.57
2022-08-02T18:43:07.211Z,26.57
2022-08-02T18:46:05.523Z,26.39
2022-08-02T18:48:30.175Z,26.25
2022-08-02T18:51:00.206Z,26.14
2022-08-02T18:53:41.594Z,26.02
2022-08-02T18:56:20.446Z,25.90
2022-08-02T18:58:56.077Z,25.82
2022-08-02T19:01:32.137Z,25.76
2022-08-02T19:04:05.903Z,25.71
2022-08-02T19:06:38.943Z,25.64
2022-08-02T19:09:12.988Z,25.62
2022-08-02T19:11:47.469Z,25.48
2022-08-02T19:14:28.366Z,25.34
2022-08-02T19:17:15.835Z,25.26
2022-08-02T19:19:53.467Z,25.20
2022-08-02T19:22:35.201Z,25.18
2022-08-02T19:25:05.141Z,25.11
2022-08-02T19:27:41.487Z,24.98
2022-08-02T19:30:18.556Z,24.91
2022-08-02T19:32:59.044Z,24.89
2022-08-02T19:35:34.247Z,24.74
2022-08-02T19:38:11.691Z,24.67
2022-08-02T19:40:43.045Z,24.60
2022-08-02T19:44:24.290Z,24.55
2022-08-02T19:46:09.137Z,24.44
2022-08-02T19:48:46.210Z,24.38
2022-08-02T19:51:16.254Z,24.32
2022-08-02T19:54:05.047Z,24.17
2022-08-02T19:56:40.372Z,24.15
2022-08-02T19:59:13.623Z,24.10
2022-08-02T20:01:48.494Z,24.03
2022-08-02T20:04:28.401Z,23.97
2022-08-02T20:06:57.375Z,23.89
2022-08-02T20:09:33.484Z,23.76
2022-08-02T20:12:16.591Z,23.75
2022-08-02T20:14:51.102Z,23.62
2022-08-02T20:17:21.222Z,23.62
2022-08-02T20:19:50.435Z,23.58
2022-08-02T20:22:21.261Z,23.49
2022-08-02T20:24:50.145Z,23.47
2022-08-02T20:27:22.995Z,23.44
2022-08-02T20:29:55.301Z,23.38
2022-08-02T20:32:24.230Z,23.43
2022-08-02T20:34:53.412Z,23.35
2022-08-02T20:37:59.191Z,23.24
2022-08-02T20:40:16.748Z,23.15
2022-08-02T20:42:48.435Z,23.08
2022-08-02T20:45:19.436Z,23.04
2022-08-02T20:47:52.435Z,22.89
2022-08-02T20:50:40.325Z,22.83
2022-08-02T20:53:23.699Z,22.80
2022-08-02T20:55:57.291Z,22.83
2022-08-02T20:58:27.074Z,22.84
2022-08-02T21:00:59.896Z,22.77
2022-08-02T21:03:39.531Z,22.78
2022-08-02T21:06:10.205Z,22.75
2022-08-02T21:08:39.279Z,22.80
2022-08-02T21:11:09.422Z,22.72
2022-08-02T21:13:47.105Z,22.64
2022-08-02T21:16:32.277Z,22.65
2022-08-02T21:19:02.781Z,22.61
2022-08-02T21:21:37.223Z,22.54
2022-08-02T21:24:07.073Z,22.55
2022-08-02T21:26:41.276Z,22.57
2022-08-02T21:29:10.884Z,22.59
2022-08-02T21:31:44.131Z,22.43
2022-08-02T21:34:26.605Z,22.35
2022-08-02T21:36:56.758Z,22.26
2022-08-02T21:39:26.039Z,22.15
2022-08-02T21:41:55.508Z,22.07
2022-08-02T21:44:24.980Z,22.02
2022-08-02T21:46:57.424Z,21.95
2022-08-02T21:50:08.543Z,21.92
2022-08-02T21:52:18.259Z,21.88
2022-08-02T21:54:47.796Z,22.00
2022-08-02T21:57:18.214Z,21.98
2022-08-02T21:59:55.429Z,21.91
2022-08-02T22:02:30.686Z,21.81
2022-08-02T22:05:02.590Z,21.79
2022-08-02T22:07:38.580Z,21.75
2022-08-02T22:10:10.466Z,21.60
2022-08-02T22:12:39.447Z,21.52
2022-08-02T22:15:10.754Z,21.54
2022-08-02T22:17:51.123Z,21.50
2022-08-02T22:20:22.956Z,21.39
2022-08-02T22:22:53.409Z,21.35
2022-08-02T22:25:31.109Z,21.30
2022-08-02T22:28:38.114Z,21.28
2022-08-02T22:31:00.046Z,21.25
2022-08-02T22:34:00.371Z,21.28
2022-08-02T22:36:31.656Z,21.19
2022-08-02T22:39:02.008Z,21.11
2022-08-02T22:41:41.777Z,21.03
2022-08-02T22:44:20.519Z,21.05
2022-08-02T22:46:50.310Z,21.07
2022-08-02T22:49:37.119Z,21.11
2022-08-02T22:52:10.589Z,21.02
2022-08-02T22:54:39.971Z,20.90
2022-08-02T22:57:11.286Z,20.82
2022-08-02T22:58:36.734Z,29.49
2022-08-02T22:59:41.668Z,20.86
2022-08-02T23:02:11.578Z,20.85
2022-08-02T23:04:41.910Z,20.78
2022-08-02T23:07:10.819Z,20.69
2022-08-02T23:09:39.893Z,20.65
2022-08-02T23:12:09.182Z,20.72
2022-08-02T23:14:38.000Z,20.59
2022-08-02T23:17:23.628Z,20.55
2022-08-02T23:19:54.034Z,20.47
2022-08-02T23:22:29.854Z,20.46
2022-08-02T23:25:02.435Z,20.45
2022-08-02T23:27:31.796Z,20.40
2022-08-02T23:30:01.880Z,20.32
2022-08-02T23:32:31.107Z,20.32
2022-08-02T23:35:01.486Z,20.33
2022-08-02T23:37:58.361Z,20.26
2022-08-02T23:40:38.843Z,20.27
2022-08-02T23:43:15.020Z,20.21
2022-08-02T23:45:46.441Z,20.21
2022-08-02T23:48:15.700Z,20.13
2022-08-02T23:50:46.016Z,20.07
2022-08-02T23:53:14.893Z,20.00
2022-08-02T23:55:43.718Z,20.03
2022-08-02T23:58:14.136Z,19.98
